Time,TemperatureF,DewpointF,PressureIn,WindDirection,WindDirectionDegrees,WindSpeedMPH,WindSpeedGustMPH,Humidity,HourlyPrecipIn,Conditions,Clouds,dailyrainin,SoftwareType,DateUTC
2013-07-28 00:05:00,66.1,62.8,29.93,SE,141,0.0,0.0,89,0.00,,,0.00,Wunderground v.1.13,2013-07-28 04:05:00,
2013-07-28 00:10:00,66.0,62.7,29.93,SE,141,0.0,0.0,89,0.00,,,0.00,Wunderground v.1.13,2013-07-28 04:10:00,
2013-07-28 00:15:00,65.8,62.8,29.92,SE,141,0.0,0.0,90,0.00,,,0.00,Wunderground v.1.13,2013-07-28 04:15:00,
2013-07-28 00:20:00,65.8,62.8,29.92,SE,141,0.0,0.0,90,0.00,,,0.00,Wunderground v.1.13,2013-07-28 04:20:00,
2013-07-28 00:25:00,65.6,62.6,29.92,SE,141,0.0,0.0,90,0.00,,,0.00,Wunderground v.1.13,2013-07-28 04:25:00,
2013-07-28 00:30:00,65.6,62.9,29.92,SE,141,0.0,0.0,91,0.00,,,0.00,Wunderground v.1.13,2013-07-28 04:30:00,
2013-07-28 00:40:00,65.6,62.9,29.92,SE,141,0.0,0.0,91,0.00,,,0.00,Wunderground v.1.13,2013-07-28 04:40:00,
2013-07-28 00:45:00,65.3,62.6,29.93,SE,141,0.0,0.0,91,0.00,,,0.00,Wunderground v.1.13,2013-07-28 04:45:00,
2013-07-28 00:55:00,65.0,62.3,29.93,SE,141,0.0,0.0,91,0.00,,,0.00,Wunderground v.1.13,2013-07-28 04:55:00,
2013-07-28 01:00:00,65.0,62.3,29.92,SE,141,0.0,0.0,91,0.00,,,0.00,Wunderground v.1.13,2013-07-28 05:00:00,
2013-07-28 01:10:00,64.8,62.4,29.92,SE,141,0.0,0.0,92,0.00,,,0.00,Wunderground v.1.13,2013-07-28 05:10:00,
2013-07-28 01:15:00,65.0,62.6,29.93,SE,141,0.0,0.0,92,0.00,,,0.00,Wunderground v.1.13,2013-07-28 05:15:00,
2013-07-28 01:20:00,65.0,62.6,29.93,SE,141,0.0,0.0,92,0.00,,,0.00,Wunderground v.1.13,2013-07-28 05:20:00,
2013-07-28 01:25:00,65.0,62.6,29.93,SE,141,0.0,0.0,92,0.00,,,0.00,Wunderground v.1.13,2013-07-28 05:25:00,
2013-07-28 01:30:00,65.0,62.6,29.93,SE,141,0.0,0.0,92,0.00,,,0.00,Wunderground v.1.13,2013-07-28 05:30:00,
2013-07-28 01:40:00,64.8,62.7,29.93,SE,141,0.0,0.0,93,0.00,,,0.00,Wunderground v.1.13,2013-07-28 05:40:00,
2013-07-28 01:50:00,64.8,62.7,29.93,SE,141,0.0,0.0,93,0.00,,,0.00,Wunderground v.1.13,2013-07-28 05:50:00,
2013-07-28 01:55:00,64.8,62.7,29.93,SE,141,0.0,0.0,93,0.00,,,0.00,Wunderground v.1.13,2013-07-28 05:55:00,
2013-07-28 02:00:00,64.8,62.7,29.92,SE,141,0.0,0.0,93,0.00,,,0.00,Wunderground v.1.13,2013-07-28 06:00:00,
2013-07-28 02:10:00,65.0,63.2,29.92,SE,141,0.0,0.0,94,0.00,,,0.00,Wunderground v.1.13,2013-07-28 06:10:00,
2013-07-28 02:15:00,65.2,63.4,29.92,SE,141,0.0,0.0,94,0.00,,,0.00,Wunderground v.1.13,2013-07-28 06:15:00,
2013-07-28 02:25:00,65.5,63.7,29.92,SE,141,0.0,0.0,94,0.00,,,0.00,Wunderground v.1.13,2013-07-28 06:25:00,
2013-07-28 02:30:00,65.3,63.2,29.92,SE,141,0.0,0.0,93,0.00,,,0.00,Wunderground v.1.13,2013-07-28 06:30:00,
2013-07-28 02:35:00,65.0,63.2,29.92,SE,141,0.0,0.0,94,0.00,,,0.00,Wunderground v.1.13,2013-07-28 06:35:00,
2013-07-28 02:40:00,65.0,63.2,29.92,SE,141,0.0,0.0,94,0.00,,,0.00,Wunderground v.1.13,2013-07-28 06:40:00,
2013-07-28 02:50:00,65.0,63.2,29.92,SE,141,0.0,0.0,94,0.00,,,0.00,Wunderground v.1.13,2013-07-28 06:50:00,
2013-07-28 02:55:00,65.2,63.4,29.92,SE,141,0.0,0.0,94,0.00,,,0.00,Wunderground v.1.13,2013-07-28 06:55:00,
2013-07-28 03:05:00,65.2,63.1,29.91,SE,141,0.0,0.0,93,0.00,,,0.00,Wunderground v.1.13,2013-07-28 07:05:00,
2013-07-28 03:10:00,65.0,62.9,29.91,SE,141,0.0,0.0,93,0.00,,,0.00,Wunderground v.1.13,2013-07-28 07:10:00,
2013-07-28 03:15:00,65.0,62.9,29.91,SE,141,0.0,0.0,93,0.00,,,0.00,Wunderground v.1.13,2013-07-28 07:15:00,
2013-07-28 03:25:00,65.0,63.2,29.91,SE,141,0.0,0.0,94,0.00,,,0.00,Wunderground v.1.13,2013-07-28 07:25:00,
2013-07-28 03:30:00,65.0,63.2,29.91,SE,141,0.0,0.0,94,0.00,,,0.00,Wunderground v.1.13,2013-07-28 07:30:00,
2013-07-28 03:40:00,65.3,63.5,29.91,SE,141,0.0,0.0,94,0.00,,,0.00,Wunderground v.1.13,2013-07-28 07:40:00,
2013-07-28 03:45:00,65.3,63.5,29.91,SE,141,0.0,0.0,94,0.00,,,0.00,Wunderground v.1.13,2013-07-28 07:45:00,
2013-07-28 03:55:00,65.2,63.4,29.91,SE,141,0.0,0.0,94,0.00,,,0.00,Wunderground v.1.13,2013-07-28 07:55:00,
2013-07-28 04:00:00,65.3,63.5,29.91,SE,141,0.0,0.0,94,0.00,,,0.00,Wunderground v.1.13,2013-07-28 08:00:00,
2013-07-28 04:10:00,65.3,63.5,29.91,SE,141,0.0,0.0,94,0.00,,,0.00,Wunderground v.1.13,2013-07-28 08:10:00,
2013-07-28 04:15:00,65.2,63.4,29.91,SE,141,0.0,0.0,94,0.00,,,0.00,Wunderground v.1.13,2013-07-28 08:15:00,
2013-07-28 04:25:00,64.5,62.7,29.91,SE,141,0.0,0.0,94,0.00,,,0.00,Wunderground v.1.13,2013-07-28 08:25:00,
2013-07-28 04:30:00,64.5,62.7,29.92,SE,141,0.0,0.0,94,0.00,,,0.00,Wunderground v.1.13,2013-07-28 08:30:00,
2013-07-28 04:35:00,64.5,62.7,29.92,SE,141,0.0,0.0,94,0.00,,,0.00,Wunderground v.1.13,2013-07-28 08:35:00,
2013-07-28 04:40:00,64.7,62.9,29.92,SE,141,0.0,0.0,94,0.00,,,0.00,Wunderground v.1.13,2013-07-28 08:40:00,
2013-07-28 04:45:00,64.8,63.0,29.92,SE,141,0.0,0.0,94,0.00,,,0.00,Wunderground v.1.13,2013-07-28 08:45:00,
2013-07-28 04:55:00,65.0,63.2,29.92,SE,141,0.0,0.0,94,0.00,,,0.00,Wunderground v.1.13,2013-07-28 08:55:00,
2013-07-28 05:00:00,65.0,63.2,29.91,SE,141,0.0,0.0,94,0.00,,,0.00,Wunderground v.1.13,2013-07-28 09:00:00,
2013-07-28 05:10:00,65.0,63.2,29.91,SE,141,0.0,0.0,94,0.00,,,0.00,Wunderground v.1.13,2013-07-28 09:10:00,
2013-07-28 05:15:00,65.0,63.2,29.91,SE,141,0.0,0.0,94,0.00,,,0.00,Wunderground v.1.13,2013-07-28 09:15:00,
2013-07-28 05:25:00,65.0,63.2,29.91,SE,141,0.0,0.0,94,0.00,,,0.00,Wunderground v.1.13,2013-07-28 09:25:00,
2013-07-28 05:30:00,65.0,63.2,29.92,SE,141,0.0,0.0,94,0.00,,,0.00,Wunderground v.1.13,2013-07-28 09:30:00,
2013-07-28 05:35:00,64.8,63.0,29.92,SE,141,0.0,0.0,94,0.00,,,0.00,Wunderground v.1.13,2013-07-28 09:35:00,
2013-07-28 05:40:00,64.8,63.0,29.92,SE,141,0.0,0.0,94,0.00,,,0.00,Wunderground v.1.13,2013-07-28 09:40:00,
2013-07-28 05:45:00,64.8,63.0,29.92,SE,141,0.0,0.0,94,0.00,,,0.00,Wunderground v.1.13,2013-07-28 09:45:00,
2013-07-28 05:55:00,65.0,63.2,29.92,SE,141,0.0,0.0,94,0.00,,,0.00,Wunderground v.1.13,2013-07-28 09:55:00,
2013-07-28 06:00:00,65.0,63.2,29.92,SE,141,0.0,0.0,94,0.00,,,0.00,Wunderground v.1.13,2013-07-28 10:00:00,
2013-07-28 06:05:00,65.0,63.2,29.92,SE,141,0.0,0.0,94,0.00,,,0.00,Wunderground v.1.13,2013-07-28 10:05:00,
2013-07-28 06:10:00,65.2,63.4,29.92,SE,141,0.0,0.0,94,0.00,,,0.00,Wunderground v.1.13,2013-07-28 10:10:00,
2013-07-28 06:20:00,65.5,63.7,29.92,SE,141,0.0,0.0,94,0.00,,,0.00,Wunderground v.1.13,2013-07-28 10:20:00,
2013-07-28 06:25:00,65.3,63.5,29.92,SE,141,0.0,0.0,94,0.00,,,0.00,Wunderground v.1.13,2013-07-28 10:25:00,
2013-07-28 06:30:00,65.5,63.7,29.93,SE,141,0.0,0.0,94,0.00,,,0.00,Wunderground v.1.13,2013-07-28 10:30:00,
2013-07-28 06:40:00,65.6,63.8,29.93,SE,141,0.0,0.0,94,0.00,,,0.00,Wunderground v.1.13,2013-07-28 10:40:00,
2013-07-28 06:45:00,65.6,63.8,29.94,SE,141,0.0,0.0,94,0.00,,,0.00,Wunderground v.1.13,2013-07-28 10:45:00,
2013-07-28 06:55:00,65.8,64.0,29.94,SE,141,0.0,0.0,94,0.00,,,0.00,Wunderground v.1.13,2013-07-28 10:55:00,
2013-07-28 07:00:00,66.0,64.2,29.94,SE,141,0.0,0.0,94,0.00,,,0.00,Wunderground v.1.13,2013-07-28 11:00:00,
2013-07-28 07:05:00,66.1,64.3,29.94,SE,141,0.0,0.0,94,0.00,,,0.00,Wunderground v.1.13,2013-07-28 11:05:00,
2013-07-28 07:15:00,66.4,64.6,29.95,SE,141,0.0,0.0,94,0.00,,,0.00,Wunderground v.1.13,2013-07-28 11:15:00,
2013-07-28 07:20:00,66.8,65.0,29.95,SE,141,0.0,0.0,94,0.00,,,0.00,Wunderground v.1.13,2013-07-28 11:20:00,
2013-07-28 07:25:00,67.1,65.3,29.95,SE,141,0.0,0.0,94,0.00,,,0.00,Wunderground v.1.13,2013-07-28 11:25:00,
2013-07-28 07:30:00,67.6,65.8,29.95,SE,141,0.0,0.0,94,0.00,,,0.00,Wunderground v.1.13,2013-07-28 11:30:00,
2013-07-28 07:40:00,68.4,66.6,29.95,SE,141,0.0,0.0,94,0.00,,,0.00,Wunderground v.1.13,2013-07-28 11:40:00,
2013-07-28 07:45:00,68.6,66.8,29.94,SE,141,0.0,0.0,94,0.00,,,0.00,Wunderground v.1.13,2013-07-28 11:45:00,
2013-07-28 07:55:00,68.9,66.8,29.94,SE,141,0.0,0.0,93,0.00,,,0.00,Wunderground v.1.13,2013-07-28 11:55:00,
2013-07-28 08:00:00,69.1,67.0,29.95,SE,141,0.0,0.0,93,0.00,,,0.00,Wunderground v.1.13,2013-07-28 12:00:00,
2013-07-28 08:05:00,69.4,67.3,29.95,SE,141,0.0,0.0,93,0.00,,,0.00,Wunderground v.1.13,2013-07-28 12:05:00,
2013-07-28 08:15:00,69.8,67.4,29.94,SE,141,0.0,0.0,92,0.00,,,0.00,Wunderground v.1.13,2013-07-28 12:15:00,
2013-07-28 08:20:00,70.1,67.7,29.94,SE,141,0.0,1.0,92,0.00,,,0.00,Wunderground v.1.13,2013-07-28 12:20:00,
2013-07-28 08:25:00,70.3,67.5,29.94,SE,141,0.0,1.0,91,0.00,,,0.00,Wunderground v.1.13,2013-07-28 12:25:00,
2013-07-28 08:30:00,70.6,67.8,29.94,SE,141,0.0,0.0,91,0.00,,,0.00,Wunderground v.1.13,2013-07-28 12:30:00,
2013-07-28 08:40:00,70.9,67.8,29.94,SE,141,0.0,0.0,90,0.00,,,0.00,Wunderground v.1.13,2013-07-28 12:40:00,
2013-07-28 08:45:00,71.1,67.7,29.94,SE,141,0.0,0.0,89,0.00,,,0.00,Wunderground v.1.13,2013-07-28 12:45:00,
2013-07-28 08:55:00,71.3,66.6,29.94,SE,141,0.0,0.0,85,0.00,,,0.00,Wunderground v.1.13,2013-07-28 12:55:00,
2013-07-28 09:00:00,71.5,66.4,29.94,SE,141,0.0,0.0,84,0.00,,,0.00,Wunderground v.1.13,2013-07-28 13:00:00,
2013-07-28 09:10:00,71.8,67.0,29.94,SE,141,0.0,0.0,85,0.00,,,0.00,Wunderground v.1.13,2013-07-28 13:10:00,
2013-07-28 09:15:00,72.0,66.9,29.94,SSE,152,0.0,0.0,84,0.00,,,0.00,Wunderground v.1.13,2013-07-28 13:15:00,
2013-07-28 09:20:00,72.1,66.6,29.94,SE,126,0.0,0.0,83,0.00,,,0.00,Wunderground v.1.13,2013-07-28 13:20:00,
2013-07-28 09:25:00,72.3,66.8,29.94,SSE,155,0.0,1.0,83,0.00,,,0.00,Wunderground v.1.13,2013-07-28 13:25:00,
2013-07-28 09:30:00,72.3,66.1,29.93,SE,140,0.0,0.0,81,0.00,,,0.00,Wunderground v.1.13,2013-07-28 13:30:00,
2013-07-28 09:40:00,73.0,66.5,29.93,SE,130,0.0,0.0,80,0.00,,,0.00,Wunderground v.1.13,2013-07-28 13:40:00,
2013-07-28 09:50:00,73.3,66.4,29.94,SE,124,0.0,0.0,79,0.00,,,0.00,Wunderground v.1.13,2013-07-28 13:50:00,
2013-07-28 09:55:00,73.3,66.4,29.94,SE,126,0.0,1.0,79,0.00,,,0.00,Wunderground v.1.13,2013-07-28 13:55:00,
2013-07-28 10:00:00,73.3,66.4,29.94,SE,127,0.0,0.0,79,0.00,,,0.00,Wunderground v.1.13,2013-07-28 14:00:00,
2013-07-28 10:10:00,73.7,65.7,29.94,SE,133,1.0,1.0,76,0.00,,,0.00,Wunderground v.1.13,2013-07-28 14:10:00,
2013-07-28 10:15:00,73.9,66.2,29.92,NNE,25,1.0,1.0,77,0.00,,,0.00,Wunderground v.1.13,2013-07-28 14:15:00,
2013-07-28 10:25:00,74.4,66.0,29.92,SE,126,0.0,0.0,75,0.00,,,0.00,Wunderground v.1.13,2013-07-28 14:25:00,
2013-07-28 10:30:00,74.7,65.9,29.92,SE,141,0.0,0.0,74,0.00,,,0.00,Wunderground v.1.13,2013-07-28 14:30:00,
2013-07-28 10:35:00,75.1,66.2,29.92,SSW,200,0.0,0.0,74,0.00,,,0.00,Wunderground v.1.13,2013-07-28 14:35:00,
2013-07-28 10:40:00,75.1,65.9,29.92,ESE,112,0.0,0.0,73,0.00,,,0.00,Wunderground v.1.13,2013-07-28 14:40:00,
2013-07-28 10:50:00,74.9,66.1,29.92,ESE,116,1.0,3.0,74,0.00,,,0.00,Wunderground v.1.13,2013-07-28 14:50:00,
2013-07-28 10:55:00,74.7,66.2,29.92,ESE,106,1.0,1.0,75,0.00,,,0.00,Wunderground v.1.13,2013-07-28 14:55:00,
2013-07-28 11:00:00,74.9,66.4,29.92,SE,136,1.0,2.0,75,0.00,,,0.00,Wunderground v.1.13,2013-07-28 15:00:00,
2013-07-28 11:10:00,75.1,66.6,29.92,SSE,158,1.0,1.0,75,0.00,,,0.00,Wunderground v.1.13,2013-07-28 15:10:00,
2013-07-28 11:15:00,75.3,66.4,29.93,SSE,148,1.0,1.0,74,0.00,,,0.00,Wunderground v.1.13,2013-07-28 15:15:00,
2013-07-28 11:25:00,75.6,66.7,29.93,South,189,0.0,0.0,74,0.00,,,0.00,Wunderground v.1.13,2013-07-28 15:25:00,
2013-07-28 11:30:00,76.0,66.7,29.92,NNE,20,0.0,1.0,73,0.00,,,0.00,Wunderground v.1.13,2013-07-28 15:30:00,
2013-07-28 11:40:00,76.1,66.8,29.92,SE,128,0.0,0.0,73,0.00,,,0.00,Wunderground v.1.13,2013-07-28 15:40:00,
2013-07-28 11:45:00,76.0,66.3,29.92,SE,144,0.0,0.0,72,0.00,,,0.00,Wunderground v.1.13,2013-07-28 15:45:00,
2013-07-28 11:50:00,75.8,66.5,29.92,SE,143,0.0,0.0,73,0.00,,,0.00,Wunderground v.1.13,2013-07-28 15:50:00,
2013-07-28 11:55:00,75.6,66.3,29.92,SE,144,0.0,0.0,73,0.00,,,0.00,Wunderground v.1.13,2013-07-28 15:55:00,
2013-07-28 12:00:00,75.6,66.3,29.93,SE,143,0.0,1.0,73,0.00,,,0.00,Wunderground v.1.13,2013-07-28 16:00:00,
2013-07-28 12:10:00,75.6,66.7,29.93,SE,143,0.0,0.0,74,0.00,,,0.00,Wunderground v.1.13,2013-07-28 16:10:00,
2013-07-28 12:15:00,75.8,66.5,29.93,SE,128,0.0,1.0,73,0.00,,,0.00,Wunderground v.1.13,2013-07-28 16:15:00,
2013-07-28 12:25:00,75.8,66.5,29.93,SE,138,0.0,0.0,73,0.00,,,0.00,Wunderground v.1.13,2013-07-28 16:25:00,
2013-07-28 12:30:00,76.0,66.3,29.92,SE,138,0.0,0.0,72,0.00,,,0.00,Wunderground v.1.13,2013-07-28 16:30:00,
2013-07-28 12:40:00,76.1,66.0,29.92,ESE,102,0.0,0.0,71,0.00,,,0.00,Wunderground v.1.13,2013-07-28 16:40:00,
2013-07-28 12:45:00,76.5,66.4,29.93,ESE,110,0.0,0.0,71,0.00,,,0.00,Wunderground v.1.13,2013-07-28 16:45:00,
2013-07-28 12:50:00,76.7,66.6,29.93,SE,127,0.0,0.0,71,0.00,,,0.00,Wunderground v.1.13,2013-07-28 16:50:00,
2013-07-28 13:00:00,76.5,66.0,29.92,ESE,123,1.0,1.0,70,0.00,,,0.00,Wunderground v.1.13,2013-07-28 17:00:00,
2013-07-28 13:05:00,76.5,66.4,29.92,SSE,158,1.0,1.0,71,0.00,,,0.00,Wunderground v.1.13,2013-07-28 17:05:00,
2013-07-28 13:10:00,76.5,66.4,29.92,SE,134,1.0,1.0,71,0.00,,,0.00,Wunderground v.1.13,2013-07-28 17:10:00,
2013-07-28 13:15:00,76.5,66.4,29.93,SSE,165,1.0,1.0,71,0.00,,,0.00,Wunderground v.1.13,2013-07-28 17:15:00,
2013-07-28 13:25:00,76.3,65.8,29.93,SE,130,1.0,1.0,70,0.00,,,0.00,Wunderground v.1.13,2013-07-28 17:25:00,
2013-07-28 13:30:00,76.3,66.6,29.93,SE,131,1.0,1.0,72,0.00,,,0.00,Wunderground v.1.13,2013-07-28 17:30:00,
2013-07-28 13:40:00,76.1,66.4,29.93,SE,136,0.0,0.0,72,0.00,,,0.00,Wunderground v.1.13,2013-07-28 17:40:00,
2013-07-28 13:45:00,76.0,66.3,29.93,SE,124,1.0,1.0,72,0.00,,,0.00,Wunderground v.1.13,2013-07-28 17:45:00,
2013-07-28 13:50:00,75.6,65.9,29.93,SE,134,1.0,2.0,72,0.00,,,0.00,Wunderground v.1.13,2013-07-28 17:50:00,
2013-07-28 14:00:00,75.4,66.1,29.92,ESE,123,1.0,1.0,73,0.00,,,0.00,Wunderground v.1.13,2013-07-28 18:00:00,
2013-07-28 14:05:00,75.3,66.0,29.92,SSE,150,1.0,1.0,73,0.00,,,0.00,Wunderground v.1.13,2013-07-28 18:05:00,
2013-07-28 14:10:00,75.1,66.2,29.92,ESE,103,1.0,1.0,74,0.00,,,0.00,Wunderground v.1.13,2013-07-28 18:10:00,
2013-07-28 14:15:00,74.9,66.1,29.92,ESE,106,1.0,1.0,74,0.00,,,0.00,Wunderground v.1.13,2013-07-28 18:15:00,
2013-07-28 14:25:00,74.7,66.2,29.92,ESE,107,1.0,1.0,75,0.00,,,0.00,Wunderground v.1.13,2013-07-28 18:25:00,
2013-07-28 14:30:00,74.6,66.5,29.91,SE,133,1.0,1.0,76,0.00,,,0.00,Wunderground v.1.13,2013-07-28 18:30:00,
2013-07-28 14:40:00,74.2,66.9,29.91,ESE,119,1.0,1.0,78,0.00,,,0.00,Wunderground v.1.13,2013-07-28 18:40:00,
2013-07-28 14:45:00,74.0,66.7,29.91,SE,137,1.0,3.0,78,0.00,,,0.00,Wunderground v.1.13,2013-07-28 18:45:00,
2013-07-28 14:55:00,73.7,65.3,29.91,SE,145,1.0,1.0,75,0.00,,,0.00,Wunderground v.1.13,2013-07-28 18:55:00,
2013-07-28 15:00:00,73.5,65.1,29.90,SE,144,1.0,1.0,75,0.00,,,0.00,Wunderground v.1.13,2013-07-28 19:00:00,
2013-07-28 15:10:00,73.9,64.3,29.90,SE,145,0.0,1.0,72,0.00,,,0.00,Wunderground v.1.13,2013-07-28 19:10:00,
2013-07-28 15:15:00,74.2,64.2,29.90,SE,143,0.0,1.0,71,0.00,,,0.00,Wunderground v.1.13,2013-07-28 19:15:00,
2013-07-28 15:20:00,74.4,64.4,29.90,SE,141,0.0,0.0,71,0.00,,,0.00,Wunderground v.1.13,2013-07-28 19:20:00,
2013-07-28 15:25:00,74.9,64.0,29.90,East,95,0.0,0.0,69,0.00,,,0.00,Wunderground v.1.13,2013-07-28 19:25:00,
2013-07-28 15:30:00,75.3,64.0,29.90,SSE,152,1.0,2.0,68,0.00,,,0.00,Wunderground v.1.13,2013-07-28 19:30:00,
2013-07-28 15:40:00,76.0,63.8,29.90,ESE,107,1.0,1.0,66,0.00,,,0.00,Wunderground v.1.13,2013-07-28 19:40:00,
2013-07-28 15:45:00,76.1,63.9,29.90,ESE,102,2.0,2.0,66,0.00,,,0.00,Wunderground v.1.13,2013-07-28 19:45:00,
2013-07-28 15:55:00,76.7,64.9,29.90,NE,35,2.0,2.0,67,0.00,,,0.00,Wunderground v.1.13,2013-07-28 19:55:00,
2013-07-28 16:00:00,76.7,64.9,29.90,SE,130,2.0,5.0,67,0.00,,,0.00,Wunderground v.1.13,2013-07-28 20:00:00,
2013-07-28 16:10:00,76.3,65.4,29.90,SSE,161,1.0,1.0,69,0.00,,,0.00,Wunderground v.1.13,2013-07-28 20:10:00,
2013-07-28 16:15:00,76.5,65.6,29.90,ESE,117,1.0,2.0,69,0.00,,,0.00,Wunderground v.1.13,2013-07-28 20:15:00,
2013-07-28 16:25:00,76.7,66.2,29.90,SE,138,1.0,2.0,70,0.00,,,0.00,Wunderground v.1.13,2013-07-28 20:25:00,
2013-07-28 16:30:00,76.7,66.2,29.90,SE,136,1.0,8.0,70,0.00,,,0.00,Wunderground v.1.13,2013-07-28 20:30:00,
2013-07-28 16:40:00,76.3,66.2,29.90,SE,141,2.0,2.0,71,0.00,,,0.00,Wunderground v.1.13,2013-07-28 20:40:00,
2013-07-28 16:45:00,76.3,66.2,29.90,ESE,123,2.0,2.0,71,0.00,,,0.00,Wunderground v.1.13,2013-07-28 20:45:00,
2013-07-28 16:50:00,76.1,66.0,29.90,SSE,148,1.0,2.0,71,0.00,,,0.00,Wunderground v.1.13,2013-07-28 20:50:00,
2013-07-28 16:55:00,76.0,65.9,29.90,SSE,157,1.0,1.0,71,0.00,,,0.00,Wunderground v.1.13,2013-07-28 20:55:00,
2013-07-28 17:00:00,76.5,65.6,29.90,SSE,164,1.0,1.0,69,0.00,,,0.00,Wunderground v.1.13,2013-07-28 21:00:00,
2013-07-28 17:10:00,76.8,65.9,29.90,SSE,148,1.0,1.0,69,0.00,,,0.00,Wunderground v.1.13,2013-07-28 21:10:00,
2013-07-28 17:15:00,77.0,66.0,29.91,North,359,0.0,0.0,69,0.00,,,0.00,Wunderground v.1.13,2013-07-28 21:15:00,
2013-07-28 17:25:00,76.8,65.9,29.91,South,179,0.0,0.0,69,0.00,,,0.00,Wunderground v.1.13,2013-07-28 21:25:00,
2013-07-28 17:30:00,76.5,66.0,29.91,South,179,0.0,0.0,70,0.00,,,0.00,Wunderground v.1.13,2013-07-28 21:30:00,
2013-07-28 17:35:00,76.3,65.8,29.91,SE,127,1.0,1.0,70,0.00,,,0.00,Wunderground v.1.13,2013-07-28 21:35:00,
2013-07-28 17:45:00,75.8,65.7,29.92,SE,128,0.0,0.0,71,0.00,,,0.00,Wunderground v.1.13,2013-07-28 21:45:00,
2013-07-28 17:55:00,75.6,65.5,29.92,SE,126,0.0,0.0,71,0.00,,,0.00,Wunderground v.1.13,2013-07-28 21:55:00,
2013-07-28 18:00:00,75.4,65.3,29.92,SE,126,0.0,0.0,71,0.00,,,0.00,Wunderground v.1.13,2013-07-28 22:00:00,
2013-07-28 18:05:00,75.4,65.3,29.92,SE,126,0.0,0.0,71,0.00,,,0.00,Wunderground v.1.13,2013-07-28 22:05:00,
2013-07-28 18:10:00,75.4,65.3,29.92,SE,126,0.0,0.0,71,0.00,,,0.00,Wunderground v.1.13,2013-07-28 22:10:00,
2013-07-28 18:15:00,75.4,65.3,29.92,SE,126,0.0,0.0,71,0.00,,,0.00,Wunderground v.1.13,2013-07-28 22:15:00,
2013-07-28 18:25:00,75.3,65.6,29.92,SE,126,0.0,0.0,72,0.00,,,0.00,Wunderground v.1.13,2013-07-28 22:25:00,
2013-07-28 18:30:00,75.1,65.5,29.92,SE,126,0.0,0.0,72,0.00,,,0.00,Wunderground v.1.13,2013-07-28 22:30:00,
2013-07-28 18:40:00,74.9,66.1,29.92,SE,126,0.0,0.0,74,0.00,,,0.00,Wunderground v.1.13,2013-07-28 22:40:00,
2013-07-28 18:45:00,74.7,67.0,29.93,SE,126,0.0,0.0,77,0.17,,,0.02,Wunderground v.1.13,2013-07-28 22:45:00,
2013-07-28 18:55:00,73.7,67.5,29.93,SE,126,0.0,0.0,81,0.98,,,0.06,Wunderground v.1.13,2013-07-28 22:55:00,
2013-07-28 19:00:00,73.0,67.9,29.93,SE,126,0.0,0.0,84,0.19,,,0.11,Wunderground v.1.13,2013-07-28 23:00:00,
2013-07-28 19:05:00,72.5,67.7,29.93,SE,126,0.0,0.0,85,0.53,,,0.14,Wunderground v.1.13,2013-07-28 23:05:00,
2013-07-28 19:15:00,71.6,67.9,29.92,SE,126,0.0,0.0,88,0.56,,,0.24,Wunderground v.1.13,2013-07-28 23:15:00,
2013-07-28 19:20:00,71.1,67.7,29.92,SE,136,0.0,0.0,89,0.29,,,0.27,Wunderground v.1.13,2013-07-28 23:20:00,
2013-07-28 19:25:00,70.8,67.4,29.92,SE,136,0.0,0.0,89,0.21,,,0.29,Wunderground v.1.13,2013-07-28 23:25:00,
2013-07-28 19:30:00,70.4,67.3,29.91,SE,134,0.0,0.0,90,0.38,,,0.32,Wunderground v.1.13,2013-07-28 23:30:00,
2013-07-28 19:40:00,70.1,67.3,29.91,SSE,151,0.0,0.0,91,0.42,,,0.39,Wunderground v.1.13,2013-07-28 23:40:00,
2013-07-28 19:45:00,70.1,67.3,29.92,SSE,151,0.0,0.0,91,0.35,,,0.42,Wunderground v.1.13,2013-07-28 23:45:00,
2013-07-28 19:55:00,70.1,67.7,29.92,SSE,151,0.0,0.0,92,0.10,,,0.44,Wunderground v.1.13,2013-07-28 23:55:00,
2013-07-28 20:00:00,70.1,67.7,29.92,SSE,151,0.0,0.0,92,0.09,,,0.44,Wunderground v.1.13,2013-07-29 00:00:00,
2013-07-28 20:10:00,70.1,68.0,29.92,SSE,151,0.0,0.0,93,0.06,,,0.45,Wunderground v.1.13,2013-07-29 00:10:00,
2013-07-28 20:15:00,70.1,68.0,29.91,SSE,151,0.0,0.0,93,0.05,,,0.45,Wunderground v.1.13,2013-07-29 00:15:00,
2013-07-28 20:25:00,70.1,68.0,29.91,SSE,151,0.0,0.0,93,0.10,,,0.48,Wunderground v.1.13,2013-07-29 00:25:00,
2013-07-28 20:30:00,70.3,68.5,29.92,SSE,151,0.0,0.0,94,0.10,,,0.48,Wunderground v.1.13,2013-07-29 00:30:00,
2013-07-28 20:40:00,70.3,68.5,29.92,SSE,151,0.0,0.0,94,0.04,,,0.48,Wunderground v.1.13,2013-07-29 00:40:00,
2013-07-28 20:45:00,70.3,68.5,29.91,SSE,151,0.0,0.0,94,0.00,,,0.48,Wunderground v.1.13,2013-07-29 00:45:00,
2013-07-28 20:55:00,70.1,68.3,29.91,SSE,151,0.0,0.0,94,0.00,,,0.48,Wunderground v.1.13,2013-07-29 00:55:00,
2013-07-28 21:00:00,69.9,68.1,29.92,SSE,151,0.0,0.0,94,0.00,,,0.48,Wunderground v.1.13,2013-07-29 01:00:00,
2013-07-28 21:10:00,69.8,68.0,29.92,SSE,151,0.0,0.0,94,0.00,,,0.48,Wunderground v.1.13,2013-07-29 01:10:00,
2013-07-28 21:20:00,69.8,68.0,29.92,SSE,151,0.0,0.0,94,0.00,,,0.48,Wunderground v.1.13,2013-07-29 01:20:00,
2013-07-28 21:25:00,69.8,68.3,29.92,SSE,151,0.0,0.0,95,0.00,,,0.48,Wunderground v.1.13,2013-07-29 01:25:00,
2013-07-28 21:30:00,69.6,68.1,29.92,SSE,151,0.0,0.0,95,0.00,,,0.48,Wunderground v.1.13,2013-07-29 01:30:00,
2013-07-28 21:35:00,69.6,68.1,29.92,SSE,151,0.0,0.0,95,0.00,,,0.48,Wunderground v.1.13,2013-07-29 01:35:00,
2013-07-28 21:40:00,69.6,68.1,29.92,SSE,151,0.0,0.0,95,0.00,,,0.48,Wunderground v.1.13,2013-07-29 01:40:00,
2013-07-28 21:45:00,69.6,68.1,29.93,SSE,151,0.0,0.0,95,0.00,,,0.48,Wunderground v.1.13,2013-07-29 01:45:00,
2013-07-28 21:55:00,69.6,68.1,29.93,SSE,151,0.0,0.0,95,0.00,,,0.48,Wunderground v.1.13,2013-07-29 01:55:00,
2013-07-28 22:00:00,69.8,68.3,29.94,SSE,151,0.0,0.0,95,0.00,,,0.48,Wunderground v.1.13,2013-07-29 02:00:00,
2013-07-28 22:10:00,69.8,68.3,29.94,SSE,151,0.0,0.0,95,0.00,,,0.48,Wunderground v.1.13,2013-07-29 02:10:00,
2013-07-28 22:15:00,69.8,68.3,29.93,SSE,151,0.0,0.0,95,0.00,,,0.48,Wunderground v.1.13,2013-07-29 02:15:00,
2013-07-28 22:25:00,69.9,68.4,29.93,SSE,151,0.0,0.0,95,0.00,,,0.48,Wunderground v.1.13,2013-07-29 02:25:00,
2013-07-28 22:30:00,69.9,68.4,29.94,SSE,151,0.0,0.0,95,0.00,,,0.48,Wunderground v.1.13,2013-07-29 02:30:00,
2013-07-28 22:40:00,70.1,68.6,29.94,SSE,151,0.0,0.0,95,0.00,,,0.48,Wunderground v.1.13,2013-07-29 02:40:00,
2013-07-28 22:45:00,70.3,68.8,29.94,SSE,151,0.0,0.0,95,0.00,,,0.48,Wunderground v.1.13,2013-07-29 02:45:00,
2013-07-28 22:50:00,70.3,69.1,29.94,SSE,151,0.0,0.0,96,0.00,,,0.48,Wunderground v.1.13,2013-07-29 02:50:00,
2013-07-28 23:00:00,70.4,69.2,29.93,ESE,123,0.0,0.0,96,0.00,,,0.48,Wunderground v.1.13,2013-07-29 03:00:00,
2013-07-28 23:10:00,70.6,69.4,29.93,ESE,123,0.0,0.0,96,0.00,,,0.48,Wunderground v.1.13,2013-07-29 03:10:00,
2013-07-28 23:15:00,70.6,69.4,29.94,ESE,123,0.0,0.0,96,0.00,,,0.48,Wunderground v.1.13,2013-07-29 03:15:00,
2013-07-28 23:25:00,70.8,69.6,29.94,ESE,123,0.0,0.0,96,0.00,,,0.48,Wunderground v.1.13,2013-07-29 03:25:00,
2013-07-28 23:30:00,70.8,69.6,29.93,SE,138,0.0,0.0,96,0.00,,,0.48,Wunderground v.1.13,2013-07-29 03:30:00,
2013-07-28 23:40:00,70.9,69.7,29.93,SE,138,0.0,0.0,96,0.00,,,0.48,Wunderground v.1.13,2013-07-29 03:40:00,
2013-07-28 23:45:00,70.9,69.7,29.93,SE,138,0.0,0.0,96,0.00,,,0.48,Wunderground v.1.13,2013-07-29 03:45:00,
2013-07-28 23:50:00,70.9,69.4,29.93,SE,138,0.0,0.0,95,0.00,,,0.48,Wunderground v.1.13,2013-07-29 03:50:00,
2013-07-28 23:55:00,70.9,69.7,29.93,SE,138,0.0,0.0,96,0.00,,,0.48,Wunderground v.1.13,2013-07-29 03:55:00,